createdAt,value
2022-08-17T00:00:49.452Z,99932.34375
2022-08-17T00:01:52.116Z,99931.6796875
2022-08-17T00:02:43.156Z,99932.60546875
2022-08-17T00:03:41.867Z,99934.0859375
2022-08-17T00:04:41.756Z,99934.05859375
2022-08-17T00:05:41.766Z,99935.84765625
2022-08-17T00:06:41.779Z,99936.8359375
2022-08-17T00:07:42.293Z,99939.58984375
2022-08-17T00:08:44.901Z,99940.125
2022-08-17T00:09:42.212Z,99939.96875
2022-08-17T00:10:41.912Z,99940.94140625
2022-08-17T00:11:41.896Z,99934.1171875
2022-08-17T00:12:44.358Z,99938.63671875
2022-08-17T00:13:42.121Z,99935.9453125
2022-08-17T00:14:41.883Z,99934.55078125
2022-08-17T00:15:41.896Z,99934.81640625
2022-08-17T00:16:53.464Z,99933.5859375
2022-08-17T00:17:41.897Z,99933.92578125
2022-08-17T00:18:57.642Z,99936.73828125
2022-08-17T00:19:44.866Z,99936.3125
2022-08-17T00:20:41.948Z,99938.03515625
2022-08-17T00:22:30.842Z,99938.28515625
2022-08-17T00:22:42.207Z,99933.3125
2022-08-17T00:23:44.429Z,99933.41015625
2022-08-17T00:24:42.203Z,99934.3046875
2022-08-17T00:25:41.864Z,99935.8828125
2022-08-17T00:26:45.185Z,99935.328125
2022-08-17T00:27:42.221Z,99935.3984375
2022-08-17T00:28:41.934Z,99935.328125
2022-08-17T00:29:41.881Z,99931.5703125
2022-08-17T00:30:51.182Z,99932.55078125
2022-08-17T00:31:41.960Z,99929.72265625
2022-08-17T00:33:14.104Z,99932.078125
2022-08-17T00:33:41.952Z,99925.15625
2022-08-17T00:34:41.857Z,99930.625
2022-08-17T00:35:41.863Z,99928.0859375
2022-08-17T00:36:41.881Z,99927.9921875
2022-08-17T00:37:42.192Z,99927.7734375
2022-08-17T00:38:42.121Z,99929.69921875
2022-08-17T00:39:42.230Z,99932.91796875
2022-08-17T00:40:44.961Z,99930.83984375
2022-08-17T00:41:45.039Z,99930.55859375
2022-08-17T00:42:42.343Z,99930.33984375
2022-08-17T00:43:41.955Z,99930.3125
2022-08-17T00:44:41.978Z,99926.47265625
2022-08-17T00:45:41.966Z,99928.11328125
2022-08-17T00:46:41.959Z,99925.54296875
2022-08-17T00:47:42.117Z,99925.08984375
2022-08-17T00:48:42.191Z,99925.03125
2022-08-17T00:49:41.927Z,99926.9765625
2022-08-17T00:50:41.756Z,99926.91796875
2022-08-17T00:51:41.905Z,99921.1328125
2022-08-17T00:52:44.855Z,99927.6953125
2022-08-17T00:53:42.143Z,99926.79296875
2022-08-17T00:54:42.487Z,99926.72265625
2022-08-17T00:55:41.969Z,99927.640625
2022-08-17T00:56:41.972Z,99928.29296875
2022-08-17T00:57:41.941Z,99929.00390625
2022-08-17T00:58:41.896Z,99928.69140625
2022-08-17T00:59:41.851Z,99928.984375
2022-08-17T01:00:41.940Z,99926.0859375
2022-08-17T01:01:41.892Z,99925.94921875
2022-08-17T01:02:42.901Z,99925.23828125
2022-08-17T01:03:47.823Z,99921.33984375
2022-08-17T01:04:41.970Z,99923.703125
2022-08-17T01:05:42.302Z,99920.6796875
2022-08-17T01:06:41.894Z,99921.24609375
2022-08-17T01:07:41.947Z,99922.0546875
2022-08-17T01:08:42.191Z,99919.8359375
2022-08-17T01:09:42.168Z,99918.11328125
2022-08-17T01:10:58.555Z,99919.3515625
2022-08-17T01:11:41.895Z,99919.5390625
2022-08-17T01:12:41.820Z,99921.09375
2022-08-17T01:13:42.262Z,99922.3671875
2022-08-17T01:14:44.893Z,99921.2734375
2022-08-17T01:15:41.978Z,99921.71484375
2022-08-17T01:16:41.957Z,99923.703125
2022-08-17T01:17:41.930Z,99922.25390625
2022-08-17T01:18:42.210Z,99922.7265625
2022-08-17T01:19:42.144Z,99928.12109375
2022-08-17T01:20:47.857Z,99928.34375
2022-08-17T01:21:41.768Z,99931.796875
2022-08-17T01:22:41.981Z,99928.4375
2022-08-17T01:23:42.122Z,99928.5234375
2022-08-17T01:24:42.123Z,99926.625
2022-08-17T01:25:44.868Z,99927.3125
2022-08-17T01:26:41.974Z,99928.82421875
2022-08-17T01:27:41.956Z,99928.62890625
2022-08-17T01:28:53.952Z,99930.61328125
2022-08-17T01:29:41.974Z,99929.0703125
2022-08-17T01:30:56.685Z,99933.734375
2022-08-17T01:31:41.823Z,99934.1640625
2022-08-17T01:32:41.917Z,99934.828125
2022-08-17T01:33:42.111Z,99935.00390625
2022-08-17T01:34:43.534Z,99934.8203125
2022-08-17T01:35:41.941Z,99934.97265625
2022-08-17T01:36:41.767Z,99935.984375
2022-08-17T01:37:41.861Z,99937.5546875
2022-08-17T01:38:41.977Z,99941.6015625
2022-08-17T01:39:42.210Z,99938.28125
2022-08-17T01:40:41.815Z,99940.7578125
2022-08-17T01:41:45.018Z,99942.03125
2022-08-17T01:42:42.015Z,99941.08984375
2022-08-17T01:43:41.951Z,99942.97265625
2022-08-17T01:44:42.190Z,99940.69140625
2022-08-17T01:45:41.968Z,99944.1953125
2022-08-17T01:46:41.824Z,99941.28515625
2022-08-17T01:47:41.862Z,99940.21484375
2022-08-17T01:48:41.859Z,99934.3359375
2022-08-17T01:49:42.139Z,99936.58203125
2022-08-17T01:50:41.978Z,99939.92578125
2022-08-17T01:51:41.928Z,99938.03125
2022-08-17T01:52:44.860Z,99941.2890625
2022-08-17T01:53:41.928Z,99937.85546875
2022-08-17T01:54:42.225Z,99936.79296875
2022-08-17T01:55:41.964Z,99935.59765625
2022-08-17T01:56:41.962Z,99935.17578125
2022-08-17T01:57:41.965Z,99934.51171875
2022-08-17T01:58:41.751Z,99930.77734375
2022-08-17T01:59:42.215Z,99930.77734375
2022-08-17T02:01:00.196Z,99929.23828125
2022-08-17T02:01:41.945Z,99929.546875
2022-08-17T02:02:41.965Z,99925.76171875
2022-08-17T02:03:59.209Z,99922.83203125
2022-08-17T02:04:42.291Z,99923.62109375
2022-08-17T02:05:41.945Z,99922.37109375
2022-08-17T02:06:52.946Z,99921.28515625
2022-08-17T02:07:59.675Z,99921.3671875
2022-08-17T02:09:02.653Z,99918.953125
2022-08-17T02:09:42.263Z,99918.828125
2022-08-17T02:10:46.650Z,99921.70703125
2022-08-17T02:11:41.925Z,99924.07421875
2022-08-17T02:12:41.888Z,99918.1796875
2022-08-17T02:13:41.918Z,99919.8984375
2022-08-17T02:14:47.827Z,99921.67578125
2022-08-17T02:15:41.827Z,99922.38671875
2022-08-17T02:16:41.863Z,99922.55078125
2022-08-17T02:17:41.965Z,99917.71875
2022-08-17T02:18:41.974Z,99924.76953125
2022-08-17T02:19:42.130Z,99920.625
2022-08-17T02:20:42.869Z,99916.8515625
2022-08-17T02:21:41.762Z,99918.9453125
2022-08-17T02:22:41.972Z,99917.2265625
2022-08-17T02:23:41.924Z,99917.98828125
2022-08-17T02:24:58.160Z,99919.75
2022-08-17T02:25:44.864Z,99917.71484375
2022-08-17T02:26:41.891Z,99916.8515625
2022-08-17T02:27:41.865Z,99916.953125
2022-08-17T02:28:41.976Z,99915.91796875
2022-08-17T02:29:42.140Z,99919.7578125
2022-08-17T02:31:01.977Z,99915.6953125
2022-08-17T02:31:41.894Z,99916.05859375
2022-08-17T02:32:41.926Z,99921.33984375
2022-08-17T02:33:43.669Z,99915.6875
2022-08-17T02:34:42.272Z,99914.6328125
2022-08-17T02:35:41.971Z,99915.1796875
2022-08-17T02:36:44.759Z,99915.953125
2022-08-17T02:37:41.859Z,99922.40234375
2022-08-17T02:38:41.873Z,99920.62109375
2022-08-17T02:39:42.158Z,99921.12890625
2022-08-17T02:40:42.118Z,99922.34375
2022-08-17T02:41:41.956Z,99922.98828125
2022-08-17T02:42:41.745Z,99922.76171875
2022-08-17T02:43:41.890Z,99920.90234375
2022-08-17T02:44:42.244Z,99921.59765625
2022-08-17T02:45:41.912Z,99920.97265625
2022-08-17T02:46:41.886Z,99922.02734375
2022-08-17T02:47:44.785Z,99921.3515625
2022-08-17T02:48:41.852Z,99920.1171875
2022-08-17T02:49:46.309Z,99921.6328125
2022-08-17T02:50:41.937Z,99918.75390625
2022-08-17T02:51:41.756Z,99921.98046875
2022-08-17T02:52:43.020Z,99918.9609375
2022-08-17T02:53:41.776Z,99919.2578125
2022-08-17T02:54:42.487Z,99917.77734375
2022-08-17T02:55:42.127Z,99918.421875
2022-08-17T02:56:41.935Z,99918.4921875
2022-08-17T02:57:41.894Z,99920.765625
2022-08-17T02:58:44.848Z,99921.11328125
2022-08-17T02:59:46.727Z,99923.4296875
2022-08-17T03:00:41.865Z,99926.43359375
2022-08-17T03:01:41.836Z,99925.7734375
2022-08-17T03:02:41.851Z,99927.07421875
2022-08-17T03:03:41.775Z,99922.9296875
2022-08-17T03:04:42.228Z,99927.84765625
2022-08-17T03:05:41.892Z,99927.50390625
2022-08-17T03:06:41.885Z,99922.95703125
2022-08-17T03:07:41.834Z,99929.79296875
2022-08-17T03:08:41.889Z,99928.1875
2022-08-17T03:09:47.830Z,99930.22265625
2022-08-17T03:10:41.951Z,99931.453125
2022-08-17T03:11:41.934Z,99933.4453125
2022-08-17T03:12:41.886Z,99939.16796875
2022-08-17T03:13:41.938Z,99937.19921875
2022-08-17T03:14:42.303Z,99935.62890625
2022-08-17T03:15:44.882Z,99939.3046875
2022-08-17T03:16:41.911Z,99938.36328125
2022-08-17T03:17:41.740Z,99939.07421875
2022-08-17T03:18:41.902Z,99940.53125
2022-08-17T03:19:43.110Z,99942.22265625
2022-08-17T03:20:41.927Z,99941.0546875
2022-08-17T03:21:41.790Z,99942.8515625
2022-08-17T03:22:41.871Z,99940.03515625
2022-08-17T03:23:41.861Z,99943.640625
2022-08-17T03:24:41.958Z,99942.4765625
2022-08-17T03:25:41.963Z,99941.7734375
2022-08-17T03:26:44.754Z,99944.52734375
2022-08-17T03:27:42.146Z,99940.81640625
2022-08-17T03:28:41.894Z,99942.50390625
2022-08-17T03:29:42.110Z,99943.27734375
2022-08-17T03:30:41.838Z,99940.53515625
2022-08-17T03:31:41.897Z,99941.17578125
2022-08-17T03:32:41.965Z,99936.4453125
2022-08-17T03:33:41.856Z,99938.9375
2022-08-17T03:34:42.239Z,99938.4765625
2022-08-17T03:35:41.985Z,99939.85546875
2022-08-17T03:36:41.971Z,99939.5546875
2022-08-17T03:37:44.902Z,99938.80078125
2022-08-17T03:38:41.942Z,99936.8671875
2022-08-17T03:39:41.779Z,99936.9765625
2022-08-17T03:40:57.288Z,99934.8046875
2022-08-17T03:41:41.977Z,99936.63671875
2022-08-17T03:42:41.969Z,99933.84765625
2022-08-17T03:43:41.834Z,99931.5703125
2022-08-17T03:44:42.177Z,99933.546875
2022-08-17T03:45:41.931Z,99931.515625
2022-08-17T03:46:41.848Z,99932.16796875
2022-08-17T03:47:41.894Z,99934.640625
2022-08-17T03:48:44.779Z,99929.5859375
2022-08-17T03:49:42.117Z,99936.98828125
2022-08-17T03:50:41.899Z,99935.796875
2022-08-17T03:51:41.882Z,99933.09765625
2022-08-17T03:52:41.923Z,99931.01171875
2022-08-17T03:53:41.781Z,99933.0078125
2022-08-17T03:54:42.121Z,99934.5859375
2022-08-17T03:55:41.881Z,99935.37890625
2022-08-17T03:56:41.853Z,99937.76171875
2022-08-17T03:57:41.844Z,99935.7890625
2022-08-17T03:58:41.903Z,99936.95703125
2022-08-17T03:59:47.954Z,99938.33984375
2022-08-17T04:00:41.923Z,99936.890625
2022-08-17T04:01:42.083Z,99935.65234375
2022-08-17T04:02:41.776Z,99938.4453125
2022-08-17T04:03:41.770Z,99935.88671875
2022-08-17T04:04:42.134Z,99931.8671875
2022-08-17T04:05:41.903Z,99934.73828125
2022-08-17T04:06:41.780Z,99936.60546875
2022-08-17T04:07:41.878Z,99933.39453125
2022-08-17T04:08:41.825Z,99929.203125
2022-08-17T04:09:42.254Z,99929.91015625
2022-08-17T04:10:45.227Z,99927.2890625
2022-08-17T04:11:41.857Z,99925.39453125
2022-08-17T04:12:41.787Z,99924.4140625
2022-08-17T04:13:41.868Z,99921.76953125
2022-08-17T04:14:52.677Z,99921.49609375
2022-08-17T04:15:41.752Z,99920.11328125
2022-08-17T04:16:41.863Z,99917.49609375
2022-08-17T04:17:41.927Z,99916.1953125
2022-08-17T04:18:41.770Z,99918.4140625
2022-08-17T04:19:42.194Z,99914.2578125
2022-08-17T04:20:41.945Z,99912.6484375
2022-08-17T04:21:41.745Z,99913.84765625
2022-08-17T04:22:41.891Z,99918.2265625
2022-08-17T04:23:41.914Z,99914.515625
2022-08-17T04:24:42.200Z,99919.1171875
2022-08-17T04:25:41.949Z,99919.6953125
2022-08-17T04:26:52.288Z,99921.1328125
2022-08-17T04:27:41.935Z,99923.046875
2022-08-17T04:28:41.750Z,99926.34375
2022-08-17T04:29:54.190Z,99927.45703125
2022-08-17T04:30:41.864Z,99929.8203125
2022-08-17T04:31:41.739Z,99932.05859375
2022-08-17T04:33:04.699Z,99932.171875
2022-08-17T04:33:41.962Z,99931.04296875
2022-08-17T04:34:42.194Z,99931.77734375
2022-08-17T04:35:41.938Z,99927.453125
2022-08-17T04:36:41.764Z,99927.58203125
2022-08-17T04:37:44.779Z,99929.28515625
2022-08-17T04:38:41.858Z,99929.34375
2022-08-17T04:39:42.259Z,99928.43359375
2022-08-17T04:40:41.975Z,99926.921875
2022-08-17T04:41:43.402Z,99926.35546875
2022-08-17T04:42:41.888Z,99926.58203125
2022-08-17T04:43:41.764Z,99926.92578125
2022-08-17T04:44:42.184Z,99927.42578125
2022-08-17T04:45:54.951Z,99929.01953125
2022-08-17T04:46:41.966Z,99932.2578125
2022-08-17T04:47:41.775Z,99932.5546875
2022-08-17T04:48:44.940Z,99932.40234375
2022-08-17T04:49:41.979Z,99938.54296875
2022-08-17T04:50:41.858Z,99940.84765625
2022-08-17T04:51:45.473Z,99940.8515625
2022-08-17T04:52:43.371Z,99939.00390625
2022-08-17T04:53:41.936Z,99940.296875
2022-08-17T04:54:42.192Z,99945.3671875
2022-08-17T04:55:41.852Z,99943.6328125
2022-08-17T04:56:41.911Z,99949.421875
2022-08-17T04:57:45.084Z,99947.61328125
2022-08-17T04:58:41.940Z,99947.52734375
2022-08-17T04:59:47.782Z,99948.234375
2022-08-17T05:00:41.934Z,99948.2265625
2022-08-17T05:01:41.901Z,99948.45703125
2022-08-17T05:02:49.842Z,99948.0546875
2022-08-17T05:03:41.898Z,99950.8828125
2022-08-17T05:04:42.213Z,99948.2890625
2022-08-17T05:05:41.854Z,99951.078125
2022-08-17T05:06:41.778Z,99947.19921875
2022-08-17T05:07:41.841Z,99949.63671875
2022-08-17T05:08:41.745Z,99951.0234375
2022-08-17T05:09:42.273Z,99951.5703125
2022-08-17T05:10:45.604Z,99953.30859375
2022-08-17T05:11:44.971Z,99953.54296875
2022-08-17T05:12:41.881Z,99953.65234375
2022-08-17T05:13:41.937Z,99954.0703125
2022-08-17T05:14:42.207Z,99951.86328125
2022-08-17T05:15:45.163Z,99949.21875
2022-08-17T05:16:41.897Z,99952.51171875
2022-08-17T05:17:41.887Z,99956.90625
2022-08-17T05:18:41.977Z,99955.83984375
2022-08-17T05:19:42.189Z,99957.31640625
2022-08-17T05:20:41.933Z,99953.08203125
2022-08-17T05:21:44.882Z,99953.62109375
2022-08-17T05:22:41.916Z,99958.3828125
2022-08-17T05:23:43.318Z,99955.55078125
2022-08-17T05:24:43.551Z,99956.51171875
2022-08-17T05:25:41.910Z,99958.24609375
2022-08-17T05:26:41.898Z,99961.74609375
2022-08-17T05:27:41.850Z,99963.5078125
2022-08-17T05:28:41.760Z,99957.37109375
2022-08-17T05:29:42.316Z,99958.76171875
2022-08-17T05:30:41.838Z,99958.1015625
2022-08-17T05:31:41.859Z,99957.6796875
2022-08-17T05:32:44.779Z,99958.56640625
2022-08-17T05:33:44.531Z,99961.0234375
2022-08-17T05:34:42.223Z,99962.8125
2022-08-17T05:35:41.941Z,99963.33984375
2022-08-17T05:36:44.346Z,99965.0703125
2022-08-17T05:37:41.867Z,99966.6015625
2022-08-17T05:38:41.889Z,99967.5859375
2022-08-17T05:39:42.217Z,99969.6640625
2022-08-17T05:40:41.936Z,99966.9921875
2022-08-17T05:41:41.851Z,99963.76171875
2022-08-17T05:42:41.865Z,99968.43359375
2022-08-17T05:43:44.871Z,99970.02734375
2022-08-17T05:44:42.122Z,99968.625
2022-08-17T05:45:54.916Z,99965.88671875
2022-08-17T05:46:41.869Z,99968.515625
2022-08-17T05:47:41.936Z,99969.3515625
2022-08-17T05:48:41.863Z,99969.55859375
2022-08-17T05:49:42.113Z,99970.92578125
2022-08-17T05:50:41.879Z,99968.19140625
2022-08-17T05:51:41.837Z,99969.34765625
2022-08-17T05:52:41.759Z,99961.29296875
2022-08-17T05:53:41.770Z,99963.66796875
2022-08-17T05:54:47.863Z,99964.4296875
2022-08-17T05:55:41.964Z,99964.2421875
2022-08-17T05:56:41.921Z,99964.390625
2022-08-17T05:57:43.566Z,99966.34765625
2022-08-17T05:58:41.932Z,99969.453125
2022-08-17T05:59:42.203Z,99969.91796875
2022-08-17T06:00:42.009Z,99974.69140625
2022-08-17T06:01:41.813Z,99963.71875
2022-08-17T06:02:47.091Z,99959.26171875
2022-08-17T06:03:41.960Z,99950.859375
2022-08-17T06:04:42.123Z,99952.62109375
2022-08-17T06:05:44.893Z,99947.30078125
2022-08-17T06:06:41.940Z,99945.4140625
2022-08-17T06:07:41.890Z,99943.8671875
2022-08-17T06:08:41.764Z,99945.5625
2022-08-17T06:09:42.224Z,99943.84375
2022-08-17T06:10:41.980Z,99944.609375
2022-08-17T06:11:41.961Z,99945.125
2022-08-17T06:12:41.963Z,99948.27734375
2022-08-17T06:13:41.903Z,99946.41015625
2022-08-17T06:14:42.195Z,99952.80859375
2022-08-17T06:15:41.946Z,99949.90625
2022-08-17T06:16:41.751Z,99951.55078125
2022-08-17T06:17:41.754Z,99951.23828125
2022-08-17T06:18:41.858Z,99950.8984375
2022-08-17T06:19:42.162Z,99955.53125
2022-08-17T06:20:41.842Z,99952.37109375
2022-08-17T06:21:41.901Z,99953.88671875
2022-08-17T06:22:41.878Z,99957.796875
2022-08-17T06:23:41.879Z,99958.37109375
2022-08-17T06:24:42.313Z,99956.33203125
2022-08-17T06:25:41.861Z,99951.96484375
2022-08-17T06:26:44.926Z,99949.7734375
2022-08-17T06:27:41.909Z,99960.54296875
2022-08-17T06:28:41.890Z,99963.96484375
2022-08-17T06:29:42.127Z,99960.4375
2022-08-17T06:31:00.154Z,99960.40234375
2022-08-17T06:31:41.891Z,99952.5390625
2022-08-17T06:32:41.793Z,99954.1015625
2022-08-17T06:33:41.904Z,99954.49609375
2022-08-17T06:34:42.258Z,99955.13671875
2022-08-17T06:35:41.970Z,99956.3046875
2022-08-17T06:36:41.845Z,99955.91015625
2022-08-17T06:37:41.745Z,99958.76171875
2022-08-17T06:38:41.900Z,99961.69921875
2022-08-17T06:39:42.175Z,99958.984375
2022-08-17T06:40:41.862Z,99955.92578125
2022-08-17T06:41:41.842Z,99956.609375
2022-08-17T06:43:00.818Z,99952.00390625
2022-08-17T06:43:46.133Z,99952.49609375
2022-08-17T06:44:42.320Z,99955.78515625
2022-08-17T06:45:41.886Z,99964.18359375
2022-08-17T06:46:41.944Z,99961.8828125
2022-08-17T06:47:41.849Z,99971.3515625
2022-08-17T06:48:41.904Z,99975.3125
2022-08-17T06:49:42.194Z,99978.08203125
2022-08-17T06:50:41.821Z,99978.234375
2022-08-17T06:51:41.891Z,99980.8671875
2022-08-17T06:52:46.576Z,99984.359375
2022-08-17T06:53:44.757Z,99987.80859375
2022-08-17T06:54:42.217Z,99987.33984375
2022-08-17T06:55:41.856Z,99985.8671875
2022-08-17T06:56:53.280Z,99987.62109375
2022-08-17T06:57:41.888Z,99988.40234375
2022-08-17T06:58:41.857Z,99989.34375
2022-08-17T06:59:55.428Z,99987.80078125
2022-08-17T07:00:41.877Z,99989.09375
2022-08-17T07:01:41.912Z,99988.734375
2022-08-17T07:02:51.564Z,99988.046875
2022-08-17T07:03:41.860Z,99987.265625
2022-08-17T07:04:47.809Z,99990.03515625
2022-08-17T07:05:41.931Z,99987.6484375
2022-08-17T07:06:41.873Z,99991.34375
2022-08-17T07:07:41.898Z,99990.7265625
2022-08-17T07:08:41.869Z,99987.171875
2022-08-17T07:09:42.206Z,99989.87109375
2022-08-17T07:10:41.872Z,99992.140625
2022-08-17T07:11:41.900Z,99987.671875
2022-08-17T07:12:41.927Z,99987.44140625
2022-08-17T07:13:41.851Z,99985.0546875
2022-08-17T07:14:42.216Z,99987.35546875
2022-08-17T07:15:44.772Z,99990.91015625
2022-08-17T07:16:41.939Z,99987.83203125
2022-08-17T07:17:47.391Z,99987.33203125
2022-08-17T07:18:41.908Z,99988.5859375
2022-08-17T07:19:42.239Z,99987.59375
2022-08-17T07:20:41.923Z,99990.015625
2022-08-17T07:21:41.854Z,99989.484375
2022-08-17T07:22:50.623Z,99990.953125
2022-08-17T07:23:41.964Z,99990.88671875
2022-08-17T07:24:42.125Z,99992
2022-08-17T07:25:42.125Z,99988.546875
2022-08-17T07:26:41.752Z,99991.3828125
2022-08-17T07:27:41.969Z,99989.6484375
2022-08-17T07:28:41.893Z,99988.88671875
2022-08-17T07:29:42.119Z,99985.1640625
2022-08-17T07:30:47.398Z,99979.50390625
2022-08-17T07:31:44.896Z,99976.64453125
2022-08-17T07:32:41.976Z,99972.35546875
2022-08-17T07:33:41.966Z,99969.21484375
2022-08-17T07:34:42.147Z,99962.015625
2022-08-17T07:35:44.069Z,99959.92578125
2022-08-17T07:36:41.743Z,99960.37109375
2022-08-17T07:37:41.765Z,99961.69140625
2022-08-17T07:38:41.925Z,99961.04296875
2022-08-17T07:40:14.710Z,99960.23828125
2022-08-17T07:40:42.178Z,99961.08984375
2022-08-17T07:41:57.678Z,99963.19921875
2022-08-17T07:42:46.692Z,99965.7578125
2022-08-17T07:43:41.928Z,99972.5234375
2022-08-17T07:44:42.196Z,99977.140625
2022-08-17T07:45:41.955Z,99981.63671875
2022-08-17T07:46:41.970Z,99983.7734375
2022-08-17T07:47:41.957Z,99984.30078125
2022-08-17T07:48:41.871Z,99984.3515625
2022-08-17T07:49:42.314Z,99989.59765625
2022-08-17T07:50:41.868Z,99991.265625
2022-08-17T07:51:41.843Z,99990.93359375
2022-08-17T07:52:50.658Z,99988.4609375
2022-08-17T07:53:44.890Z,99991.12890625
2022-08-17T07:54:42.189Z,99994.6953125
2022-08-17T07:55:42.225Z,99993.69140625
2022-08-17T07:56:41.935Z,99996.3125
2022-08-17T07:57:41.748Z,99997.7578125
2022-08-17T07:58:41.738Z,99995.328125
2022-08-17T07:59:43.231Z,99994.44921875
2022-08-17T08:00:41.875Z,100002.3671875
2022-08-17T08:01:42.460Z,100006.98828125
2022-08-17T08:02:41.868Z,100011.9375
2022-08-17T08:03:41.761Z,100011.8359375
2022-08-17T08:05:00.750Z,100015.5859375
2022-08-17T08:05:50.037Z,100014.95703125
2022-08-17T08:06:41.851Z,100011.48046875
2022-08-17T08:07:41.850Z,100013.9609375
2022-08-17T08:08:41.905Z,100013.0546875
2022-08-17T08:09:42.185Z,100016.86328125
2022-08-17T08:10:45.066Z,100016.31640625
2022-08-17T08:11:44.357Z,100018.71484375
2022-08-17T08:12:42.017Z,100016.7265625
2022-08-17T08:13:41.937Z,100012.8828125
2022-08-17T08:14:42.197Z,100013.7265625
2022-08-17T08:15:45.220Z,100008.1015625
2022-08-17T08:16:41.915Z,100010.5625
2022-08-17T08:17:41.866Z,100002.59765625
2022-08-17T08:18:54.606Z,99999.98046875
2022-08-17T08:19:41.977Z,99997.34375
2022-08-17T08:20:51.943Z,99990.953125
2022-08-17T08:21:41.893Z,99986.32421875
2022-08-17T08:22:41.873Z,99986.703125
2022-08-17T08:23:41.875Z,99988.0078125
2022-08-17T08:24:42.142Z,99987.2265625
2022-08-17T08:25:42.198Z,99991.34375
2022-08-17T08:26:44.849Z,99990.625
2022-08-17T08:27:41.880Z,99994.03515625
2022-08-17T08:28:41.847Z,99998.4609375
2022-08-17T08:29:41.858Z,100003.51953125
2022-08-17T08:30:41.912Z,100007.81640625
2022-08-17T08:31:42.516Z,100009.71875
2022-08-17T08:32:41.770Z,100011.16796875
2022-08-17T08:33:41.808Z,100016.4375
2022-08-17T08:34:44.614Z,100020.5
2022-08-17T08:35:41.804Z,100019.89453125
2022-08-17T08:37:12.598Z,100025.19921875
2022-08-17T08:37:44.932Z,100030.06640625
2022-08-17T08:38:41.982Z,100033.75390625
2022-08-17T08:39:42.302Z,100031.33203125
2022-08-17T08:40:42.223Z,100033.1171875
2022-08-17T08:41:42.080Z,100031.4765625
2022-08-17T08:42:41.889Z,100033.03515625
2022-08-17T08:43:41.882Z,100031.44140625
2022-08-17T08:45:00.350Z,100027.7734375
2022-08-17T08:45:41.970Z,100031.0703125
2022-08-17T08:46:41.765Z,100035.3515625
2022-08-17T08:47:41.899Z,100042.19140625
2022-08-17T08:48:53.141Z,100044.59765625
2022-08-17T08:50:02.685Z,100041.36328125
2022-08-17T08:50:41.847Z,100042.609375
2022-08-17T08:51:41.766Z,100044.90625
2022-08-17T08:52:41.869Z,100044.77734375
2022-08-17T08:53:41.933Z,100049.15234375
2022-08-17T08:54:42.205Z,100051.29296875
2022-08-17T08:55:42.128Z,100051.62109375
2022-08-17T08:56:58.984Z,100050.9375
2022-08-17T08:57:41.978Z,100055.44921875
2022-08-17T08:58:42.710Z,100048.75
2022-08-17T08:59:42.077Z,100053.765625
2022-08-17T09:00:41.911Z,100053.16015625
2022-08-17T09:01:41.946Z,100050.54296875
2022-08-17T09:02:41.771Z,100049.4765625
2022-08-17T09:03:52.258Z,100049.33984375
2022-08-17T09:05:10.776Z,100042.65234375
2022-08-17T09:05:41.973Z,100045.35546875
2022-08-17T09:06:41.876Z,100037.8125
2022-08-17T09:07:41.895Z,100043.5625
2022-08-17T09:08:42.200Z,100047.06640625
2022-08-17T09:09:41.875Z,100050.25
2022-08-17T09:10:42.118Z,100051.98046875
2022-08-17T09:12:02.543Z,100053.6875
2022-08-17T09:12:41.845Z,100051.8046875
2022-08-17T09:13:42.193Z,100049.52734375
2022-08-17T09:14:47.174Z,100043.28515625
2022-08-17T09:15:44.799Z,100042.984375
2022-08-17T09:16:41.964Z,100039.82421875
2022-08-17T09:17:41.952Z,100040.71875
2022-08-17T09:19:03.455Z,100041.58203125
2022-08-17T09:19:41.847Z,100045.984375
2022-08-17T09:20:45.320Z,100048.59765625
2022-08-17T09:21:48.047Z,100048.59375
2022-08-17T09:22:41.888Z,100048.18359375
2022-08-17T09:23:42.167Z,100048.10546875
2022-08-17T09:24:41.861Z,100052.140625
2022-08-17T09:25:42.200Z,100052.41015625
2022-08-17T09:26:46.335Z,100052.97265625
2022-08-17T09:27:41.937Z,100050.85546875
2022-08-17T09:28:42.110Z,100047.67578125
2022-08-17T09:29:41.765Z,100045.07421875
2022-08-17T09:30:41.785Z,100045.2734375
2022-08-17T09:31:48.809Z,100049.22265625
2022-08-17T09:32:41.970Z,100050.57421875
2022-08-17T09:33:41.981Z,100053.2109375
2022-08-17T09:34:43.585Z,100048.93359375
2022-08-17T09:35:41.907Z,100045.69921875
2022-08-17T09:36:41.945Z,100044.2421875
2022-08-17T09:37:41.905Z,100031.94140625
2022-08-17T09:38:42.193Z,100036.69140625
2022-08-17T09:39:42.034Z,100030.8671875
2022-08-17T09:40:42.256Z,100036.28125
2022-08-17T09:41:49.270Z,100033.66796875
2022-08-17T09:42:44.767Z,100036.52734375
2022-08-17T09:43:42.129Z,100040.4765625
2022-08-17T09:44:41.914Z,100039.73046875
2022-08-17T09:45:41.897Z,100044.5234375
2022-08-17T09:46:41.929Z,100046.25
2022-08-17T09:47:41.868Z,100045.71875
2022-08-17T09:48:42.125Z,100045.73828125
2022-08-17T09:49:41.830Z,100046.0546875
2022-08-17T09:51:03.249Z,100042.96875
2022-08-17T09:51:41.893Z,100040.03515625
2022-08-17T09:52:41.896Z,100043.875
2022-08-17T09:53:47.832Z,100039.23046875
2022-08-17T09:54:41.839Z,100041.3125
2022-08-17T09:55:42.206Z,100042.453125
2022-08-17T09:56:46.205Z,100040.88671875
2022-08-17T09:57:41.887Z,100049.50390625
2022-08-17T09:58:42.128Z,100049.1171875
2022-08-17T09:59:41.922Z,100051.4296875
2022-08-17T10:00:41.771Z,100049.99609375
2022-08-17T10:01:41.933Z,100048.6484375
2022-08-17T10:02:41.938Z,100050.6328125
2022-08-17T10:03:42.198Z,100049.015625
2022-08-17T10:04:44.912Z,100049.18359375
2022-08-17T10:05:41.958Z,100050.546875
2022-08-17T10:06:41.908Z,100044.2890625
2022-08-17T10:07:41.894Z,100042.7421875
2022-08-17T10:08:42.121Z,100042.03515625
2022-08-17T10:09:41.858Z,100046.5625